Time;durP1;ratioP1;P1;durP2;ratioP2;P2;SDS_P1;SDS_P2;PMS_P1;PMS_P2;Temp;Humidity;BMP_temperature;BMP_pressure;BME280_temperature;BME280_humidity;BME280_pressure;Samples;Min_cycle;Max_cycle;Signal;HPM_P1;HPM_P2
2023/07/13 00:00:38;;;;;;;5.32;1.70;;;;;;;;;;4938552;28;99121;-77
2023/07/13 00:03:05;;;;;;;13.15;2.10;;;;;;;;;;4945902;28;99966;-77
2023/07/13 00:05:31;;;;;;;12.05;3.47;;;;;;;;;;4961603;28;97911;-76
2023/07/13 00:07:58;;;;;;;9.73;2.53;;;;;;;;;;4933961;28;99338;-78
2023/07/13 00:10:26;;;;;;;9.73;2.08;;;;;;;;;;4938735;28;99676;-76
2023/07/13 00:12:55;;;;;;;10.02;2.95;;;;;;;;;;4939185;28;98180;-78
2023/07/13 00:15:23;;;;;;;11.85;2.30;;;;;;;;;;4943563;28;98726;-77
2023/07/13 00:17:50;;;;;;;9.93;1.95;;;;;;;;;;4942373;28;99924;-76
2023/07/13 00:20:17;;;;;;;12.68;1.83;;;;;;;;;;4947024;28;99637;-78
2023/07/13 00:22:44;;;;;;;7.05;2.15;;;;;;;;;;4962541;28;98149;-75
2023/07/13 00:25:11;;;;;;;9.43;2.40;;;;;;;;;;4956746;28;98444;-77
2023/07/13 00:27:38;;;;;;;8.70;2.03;;;;;;;;;;4958443;28;98383;-77
2023/07/13 00:30:05;;;;;;;5.22;2.00;;;;;;;;;;4957014;28;99330;-77
2023/07/13 00:32:31;;;;;;;9.52;2.10;;;;;;;;;;4954064;28;98436;-76
2023/07/13 00:35:00;;;;;;;10.68;2.30;;;;;;;;;;4955492;28;101305;-77
2023/07/13 00:37:26;;;;;;;7.78;2.05;;;;;;;;;;4956427;28;98922;-77
2023/07/13 00:39:53;;;;;;;7.30;2.25;;;;;;;;;;4958967;28;98167;-77
2023/07/13 00:42:20;;;;;;;6.03;2.13;;;;;;;;;;4954137;28;99964;-76
2023/07/13 00:45:07;;;;;;;5.13;1.80;;;;;;;;;;4957396;28;98232;-77
2023/07/13 00:47:33;;;;;;;8.63;2.20;;;;;;;;;;4945333;28;98354;-77
2023/07/13 00:50:02;;;;;;;5.18;2.30;;;;;;;;;;4942395;28;98964;-78
2023/07/13 00:52:29;;;;;;;6.15;2.67;;;;;;;;;;4937473;28;98142;-77
2023/07/13 00:54:56;;;;;;;6.75;1.92;;;;;;;;;;4949854;28;98366;-77
2023/07/13 00:57:22;;;;;;;15.98;2.05;;;;;;;;;;4956269;28;98826;-76
2023/07/13 00:59:51;;;;;;;7.90;2.17;;;;;;;;;;4954898;28;98912;-77
2023/07/13 01:02:19;;;;;;;6.00;1.80;;;;;;;;;;4957860;28;99526;-76
2023/07/13 01:04:45;;;;;;;5.72;1.75;;;;;;;;;;4950909;28;98297;-77
2023/07/13 01:07:12;;;;;;;3.97;1.60;;;;;;;;;;4934484;28;99022;-78
2023/07/13 01:09:39;;;;;;;8.02;1.77;;;;;;;;;;4936029;28;99738;-76
2023/07/13 01:12:06;;;;;;;5.50;1.80;;;;;;;;;;4935217;28;98444;-76
2023/07/13 01:14:32;;;;;;;16.00;1.90;;;;;;;;;;4932815;28;100832;-77
2023/07/13 01:17:00;;;;;;;7.43;1.65;;;;;;;;;;4935565;28;98742;-76
2023/07/13 01:19:42;;;;;;;6.10;1.83;;;;;;;;;;4935444;28;98166;-76
2023/07/13 01:22:08;;;;;;;5.53;1.83;;;;;;;;;;4932747;28;98880;-77
2023/07/13 01:24:36;;;;;;;7.82;2.00;;;;;;;;;;4936992;28;100108;-77
2023/07/13 01:27:03;;;;;;;7.03;1.60;;;;;;;;;;4937304;28;98308;-77
2023/07/13 01:29:31;;;;;;;5.78;1.85;;;;;;;;;;4937230;28;99410;-77
2023/07/13 01:31:58;;;;;;;10.68;2.28;;;;;;;;;;4938733;28;98355;-77
2023/07/13 01:34:25;;;;;;;8.88;2.28;;;;;;;;;;4939676;28;98616;-77
2023/07/13 01:36:53;;;;;;;6.78;2.85;;;;;;;;;;4942069;28;98231;-78
2023/07/13 01:39:21;;;;;;;5.18;1.80;;;;;;;;;;4944658;28;97970;-77
2023/07/13 01:41:48;;;;;;;4.80;1.88;;;;;;;;;;4943242;28;100987;-77
2023/07/13 01:44:14;;;;;;;5.05;1.30;;;;;;;;;;4944562;28;98660;-77
2023/07/13 01:46:41;;;;;;;5.68;1.92;;;;;;;;;;4945805;28;98263;-77
2023/07/13 01:49:07;;;;;;;7.80;1.75;;;;;;;;;;4939326;28;100328;-77
2023/07/13 01:51:34;;;;;;;3.65;1.50;;;;;;;;;;4938563;28;98178;-77
2023/07/13 01:54:00;;;;;;;5.30;2.03;;;;;;;;;;4939293;28;99222;-76
2023/07/13 01:56:28;;;;;;;8.30;1.88;;;;;;;;;;4933602;28;98912;-76
2023/07/13 01:58:54;;;;;;;6.70;2.17;;;;;;;;;;4934186;28;98210;-77
2023/07/13 02:01:21;;;;;;;4.35;2.03;;;;;;;;;;4935827;28;98497;-77
2023/07/13 02:03:47;;;;;;;7.28;2.00;;;;;;;;;;4952371;28;102007;-77
2023/07/13 02:06:14;;;;;;;5.55;1.80;;;;;;;;;;4957951;28;98261;-77
2023/07/13 02:08:40;;;;;;;6.72;2.25;;;;;;;;;;4953346;28;99872;-77
2023/07/13 02:11:07;;;;;;;4.78;1.75;;;;;;;;;;4953607;28;98249;-76
2023/07/13 02:13:34;;;;;;;4.05;1.85;;;;;;;;;;4953110;28;98937;-76
2023/07/13 02:16:00;;;;;;;5.95;2.42;;;;;;;;;;4952651;28;100870;-77
2023/07/13 02:18:27;;;;;;;7.22;1.77;;;;;;;;;;4956115;28;98193;-77
2023/07/13 02:20:54;;;;;;;9.23;2.25;;;;;;;;;;4954300;28;98758;-76
2023/07/13 02:23:20;;;;;;;5.15;1.90;;;;;;;;;;4953689;28;98836;-76
2023/07/13 02:25:47;;;;;;;5.32;2.05;;;;;;;;;;4953346;28;97927;-77
2023/07/13 02:28:14;;;;;;;9.10;2.47;;;;;;;;;;4958092;28;99286;-78
2023/07/13 02:30:41;;;;;;;13.68;1.88;;;;;;;;;;4954158;28;98185;-77
2023/07/13 02:33:07;;;;;;;7.32;2.08;;;;;;;;;;4954304;28;99828;-77
2023/07/13 02:35:34;;;;;;;5.88;1.80;;;;;;;;;;4950899;28;100888;-76
2023/07/13 02:38:01;;;;;;;7.40;2.42;;;;;;;;;;4954851;28;98220;-77
2023/07/13 02:40:28;;;;;;;8.13;2.65;;;;;;;;;;4954378;28;97955;-78
2023/07/13 02:42:55;;;;;;;7.30;2.05;;;;;;;;;;4956060;28;98769;-77
2023/07/13 02:45:21;;;;;;;7.15;2.40;;;;;;;;;;4954129;28;98352;-78
2023/07/13 02:47:48;;;;;;;4.32;2.13;;;;;;;;;;4934798;28;98726;-77
2023/07/13 02:50:15;;;;;;;11.10;2.28;;;;;;;;;;4935917;28;98715;-77
2023/07/13 02:52:42;;;;;;;13.02;2.53;;;;;;;;;;4932041;28;100949;-75
2023/07/13 02:55:09;;;;;;;6.28;3.13;;;;;;;;;;4934104;28;98721;-78
2023/07/13 02:57:35;;;;;;;7.70;2.35;;;;;;;;;;4931855;28;98339;-77
2023/07/13 03:00:05;;;;;;;7.47;2.67;;;;;;;;;;4933124;28;98277;-77
2023/07/13 03:02:32;;;;;;;11.05;2.63;;;;;;;;;;4932308;28;100306;-77
2023/07/13 03:04:58;;;;;;;8.35;2.70;;;;;;;;;;4934455;28;98016;-77
2023/07/13 03:07:25;;;;;;;5.53;1.83;;;;;;;;;;4932162;28;99386;-77
2023/07/13 03:09:56;;;;;;;7.65;2.90;;;;;;;;;;4936136;28;100450;-77
2023/07/13 03:12:25;;;;;;;8.25;2.25;;;;;;;;;;4956503;28;98219;-76
2023/07/13 03:14:52;;;;;;;8.85;2.90;;;;;;;;;;4950135;28;100115;-78
2023/07/13 03:17:18;;;;;;;11.00;2.50;;;;;;;;;;4951893;28;98244;-76
2023/07/13 03:19:49;;;;;;;8.88;2.30;;;;;;;;;;4951187;28;98839;-78
2023/07/13 03:22:17;;;;;;;14.57;3.27;;;;;;;;;;4950963;28;101062;-78
2023/07/13 03:24:44;;;;;;;5.72;2.05;;;;;;;;;;4952695;28;98202;-78
2023/07/13 03:27:11;;;;;;;5.35;2.35;;;;;;;;;;4944420;28;100392;-78
2023/07/13 03:29:41;;;;;;;14.75;3.13;;;;;;;;;;4933699;28;101880;-77
2023/07/13 03:32:08;;;;;;;8.32;2.88;;;;;;;;;;4930920;28;98219;-78
2023/07/13 03:34:35;;;;;;;10.05;2.88;;;;;;;;;;4915995;28;98191;-77
2023/07/13 03:37:02;;;;;;;9.20;2.58;;;;;;;;;;4929662;28;98440;-77
2023/07/13 03:39:28;;;;;;;9.80;2.55;;;;;;;;;;4932064;28;101188;-77
2023/07/13 03:41:57;;;;;;;11.15;2.60;;;;;;;;;;4912385;28;99960;-77
2023/07/13 03:44:23;;;;;;;8.05;2.63;;;;;;;;;;4922304;28;98148;-76
2023/07/13 03:46:54;;;;;;;6.70;2.83;;;;;;;;;;4931476;28;101091;-79
2023/07/13 03:49:20;;;;;;;9.23;2.80;;;;;;;;;;4934788;28;98821;-78
2023/07/13 03:51:47;;;;;;;8.38;2.90;;;;;;;;;;4937122;28;99544;-77
2023/07/13 03:54:17;;;;;;;10.15;2.80;;;;;;;;;;4937412;28;100899;-78
2023/07/13 03:56:43;;;;;;;11.30;3.03;;;;;;;;;;4938692;28;101693;-77
2023/07/13 03:59:11;;;;;;;9.85;2.83;;;;;;;;;;4936827;28;100740;-77
2023/07/13 04:01:38;;;;;;;5.45;2.50;;;;;;;;;;4946176;28;101520;-78
2023/07/13 04:04:06;;;;;;;6.97;3.45;;;;;;;;;;4955264;28;97943;-76
2023/07/13 04:06:32;;;;;;;7.88;2.47;;;;;;;;;;4954624;28;99304;-75
2023/07/13 04:09:00;;;;;;;13.50;2.90;;;;;;;;;;4958065;28;98927;-74
2023/07/13 04:11:28;;;;;;;7.50;3.10;;;;;;;;;;4957972;28;98178;-77
2023/07/13 04:13:56;;;;;;;7.30;2.30;;;;;;;;;;4958516;28;98000;-77
2023/07/13 04:16:23;;;;;;;3.20;2.17;;;;;;;;;;4959736;28;100163;-76
2023/07/13 04:18:54;;;;;;;13.60;3.70;;;;;;;;;;4962968;28;97973;-78
2023/07/13 04:21:22;;;;;;;12.38;3.10;;;;;;;;;;4959075;28;98885;-76
2023/07/13 04:23:53;;;;;;;7.50;2.65;;;;;;;;;;4957062;28;98210;-76
2023/07/13 04:26:20;;;;;;;12.73;3.58;;;;;;;;;;4956470;28;99424;-77
2023/07/13 04:28:48;;;;;;;11.95;3.65;;;;;;;;;;4955014;28;100192;-78
2023/07/13 04:31:15;;;;;;;8.98;3.13;;;;;;;;;;4954669;28;98562;-77
2023/07/13 04:33:42;;;;;;;13.95;3.28;;;;;;;;;;4955502;28;99837;-77
2023/07/13 04:36:09;;;;;;;10.27;3.22;;;;;;;;;;4955475;28;100193;-78
2023/07/13 04:38:36;;;;;;;8.73;2.95;;;;;;;;;;4957027;28;98383;-77
2023/07/13 04:41:05;;;;;;;15.18;3.45;;;;;;;;;;4955004;28;99935;-77
2023/07/13 04:43:32;;;;;;;10.52;3.67;;;;;;;;;;4955267;28;98300;-77
2023/07/13 04:46:10;;;;;;;12.88;3.40;;;;;;;;;;4951741;28;99406;-77
2023/07/13 04:48:38;;;;;;;7.35;3.67;;;;;;;;;;4936216;28;99897;-78
2023/07/13 04:51:04;;;;;;;17.42;3.30;;;;;;;;;;4936487;28;98308;-76
2023/07/13 04:53:32;;;;;;;8.15;2.85;;;;;;;;;;4935962;28;98388;-78
2023/07/13 04:55:58;;;;;;;13.85;3.50;;;;;;;;;;4933659;28;100044;-77
2023/07/13 04:58:25;;;;;;;15.25;3.50;;;;;;;;;;4934168;28;98231;-77
2023/07/13 05:00:52;;;;;;;13.10;3.58;;;;;;;;;;4937024;28;99138;-76
2023/07/13 05:03:19;;;;;;;12.65;3.00;;;;;;;;;;4934324;28;98236;-77
2023/07/13 05:05:54;;;;;;;20.55;3.45;;;;;;;;;;4932584;28;99342;-77
2023/07/13 05:08:21;;;;;;;13.73;3.78;;;;;;;;;;4934829;28;99863;-78
2023/07/13 05:10:47;;;;;;;14.60;4.85;;;;;;;;;;4935438;28;98254;-77
2023/07/13 05:13:14;;;;;;;11.93;3.88;;;;;;;;;;4933496;28;99213;-77
2023/07/13 05:15:40;;;;;;;10.63;3.33;;;;;;;;;;4933499;28;99868;-77
2023/07/13 05:18:07;;;;;;;16.30;3.92;;;;;;;;;;4934792;28;97992;-77
2023/07/13 05:20:33;;;;;;;22.02;4.18;;;;;;;;;;4932907;28;98477;-77
2023/07/13 05:23:00;;;;;;;15.52;4.10;;;;;;;;;;4937199;28;99333;-77
2023/07/13 05:25:27;;;;;;;12.63;5.07;;;;;;;;;;4934723;28;99389;-77
2023/07/13 05:27:53;;;;;;;9.75;3.45;;;;;;;;;;4947961;28;99190;-77
2023/07/13 05:30:20;;;;;;;15.55;4.30;;;;;;;;;;4916787;28;98300;-77
2023/07/13 05:32:46;;;;;;;15.30;4.53;;;;;;;;;;4914478;28;98766;-77
2023/07/13 05:35:13;;;;;;;25.40;5.30;;;;;;;;;;4912839;28;98930;-77
2023/07/13 05:37:39;;;;;;;24.48;5.18;;;;;;;;;;4913995;28;98254;-78
2023/07/13 05:40:06;;;;;;;18.02;4.15;;;;;;;;;;4914224;28;98497;-77
2023/07/13 05:42:32;;;;;;;17.67;5.07;;;;;;;;;;4914285;28;99932;-76
2023/07/13 05:44:59;;;;;;;17.77;3.97;;;;;;;;;;4936682;28;98190;-76
2023/07/13 05:47:25;;;;;;;14.95;5.38;;;;;;;;;;4933152;28;100190;-76
2023/07/13 05:49:52;;;;;;;21.48;5.13;;;;;;;;;;4932409;28;98259;-76
2023/07/13 05:52:19;;;;;;;11.60;4.88;;;;;;;;;;4933331;28;98397;-77
2023/07/13 05:54:45;;;;;;;14.65;5.22;;;;;;;;;;4931670;28;99525;-76
2023/07/13 05:57:12;;;;;;;10.90;5.28;;;;;;;;;;4933701;28;98664;-77
2023/07/13 05:59:38;;;;;;;18.45;4.82;;;;;;;;;;4933702;28;99301;-76
2023/07/13 06:02:05;;;;;;;13.85;5.30;;;;;;;;;;4945101;28;98894;-76
2023/07/13 06:04:34;;;;;;;21.52;6.22;;;;;;;;;;4929485;28;98370;-77
2023/07/13 06:07:00;;;;;;;17.60;5.40;;;;;;;;;;4934378;28;98601;-76
2023/07/13 06:09:27;;;;;;;17.30;4.93;;;;;;;;;;4933458;28;99330;-78
2023/07/13 06:11:53;;;;;;;13.25;4.82;;;;;;;;;;4931972;28;99568;-76
2023/07/13 06:14:20;;;;;;;18.63;5.18;;;;;;;;;;4932513;28;99862;-76
2023/07/13 06:16:46;;;;;;;23.67;5.75;;;;;;;;;;4930398;28;98291;-76
2023/07/13 06:19:13;;;;;;;11.18;4.10;;;;;;;;;;4930488;28;98184;-76
2023/07/13 06:21:40;;;;;;;12.23;4.15;;;;;;;;;;4930797;28;99970;-76
2023/07/13 06:24:06;;;;;;;15.98;4.75;;;;;;;;;;4931871;28;98308;-77
2023/07/13 06:26:33;;;;;;;12.98;4.70;;;;;;;;;;4934743;28;99795;-78
2023/07/13 06:28:59;;;;;;;19.73;4.18;;;;;;;;;;4928955;28;98914;-76
2023/07/13 06:31:25;;;;;;;12.95;4.13;;;;;;;;;;4928057;28;99533;-77
2023/07/13 06:33:52;;;;;;;15.60;5.45;;;;;;;;;;4928097;28;99036;-76
2023/07/13 06:36:19;;;;;;;11.98;4.40;;;;;;;;;;4928801;28;99491;-76
2023/07/13 06:38:45;;;;;;;11.05;4.63;;;;;;;;;;4927658;28;98719;-77
2023/07/13 06:41:12;;;;;;;13.73;4.40;;;;;;;;;;4928191;28;99952;-76
2023/07/13 06:43:39;;;;;;;14.05;4.60;;;;;;;;;;4928716;28;98355;-77
2023/07/13 06:46:05;;;;;;;14.90;5.30;;;;;;;;;;4931295;28;99635;-76
2023/07/13 06:48:32;;;;;;;14.30;4.50;;;;;;;;;;4935070;28;99995;-75
2023/07/13 06:50:58;;;;;;;19.02;4.97;;;;;;;;;;4931615;28;99464;-78
2023/07/13 06:53:25;;;;;;;13.18;3.92;;;;;;;;;;4931543;28;98862;-75
2023/07/13 06:55:51;;;;;;;19.15;4.65;;;;;;;;;;4932171;28;98800;-76
2023/07/13 06:58:18;;;;;;;11.00;4.95;;;;;;;;;;4932272;28;99359;-77
2023/07/13 07:00:45;;;;;;;11.82;3.92;;;;;;;;;;4931768;28;100233;-78
2023/07/13 07:03:12;;;;;;;16.88;4.88;;;;;;;;;;4932679;28;98261;-76
2023/07/13 07:05:38;;;;;;;11.02;4.82;;;;;;;;;;4928789;28;99372;-76
2023/07/13 07:08:05;;;;;;;16.60;5.22;;;;;;;;;;4913443;28;98083;-76
2023/07/13 07:10:32;;;;;;;15.88;5.05;;;;;;;;;;4915547;28;98299;-78
2023/07/13 07:12:58;;;;;;;17.65;5.18;;;;;;;;;;4911477;28;99088;-78
2023/07/13 07:15:25;;;;;;;14.65;5.88;;;;;;;;;;4913460;28;98258;-78
2023/07/13 07:17:52;;;;;;;11.18;4.88;;;;;;;;;;4931445;28;99426;-77
2023/07/13 07:20:18;;;;;;;15.95;4.97;;;;;;;;;;4924980;28;99840;-76
2023/07/13 07:22:45;;;;;;;19.23;6.50;;;;;;;;;;4922380;28;98119;-76
2023/07/13 07:25:12;;;;;;;20.45;5.72;;;;;;;;;;4926953;28;99512;-76
2023/07/13 07:27:38;;;;;;;15.80;6.55;;;;;;;;;;4933742;28;99884;-79
2023/07/13 07:30:08;;;;;;;14.02;5.40;;;;;;;;;;4935605;28;97979;-80
2023/07/13 07:32:37;;;;;;;14.23;5.40;;;;;;;;;;4937928;28;98990;-79
2023/07/13 07:35:07;;;;;;;19.92;6.10;;;;;;;;;;4934735;28;98231;-80
2023/07/13 07:37:33;;;;;;;18.92;5.78;;;;;;;;;;4934984;28;99332;-78
2023/07/13 07:40:03;;;;;;;11.90;5.47;;;;;;;;;;4935032;28;99142;-78
2023/07/13 07:42:32;;;;;;;13.63;6.72;;;;;;;;;;4927439;28;98312;-78
2023/07/13 07:45:00;;;;;;;11.95;5.50;;;;;;;;;;4915810;28;99388;-79
2023/07/13 07:47:27;;;;;;;12.70;5.25;;;;;;;;;;4914861;28;100599;-79
2023/07/13 07:49:55;;;;;;;11.23;5.65;;;;;;;;;;4915885;28;98251;-79
2023/07/13 07:52:23;;;;;;;20.67;6.50;;;;;;;;;;4915731;28;99383;-80
2023/07/13 07:54:51;;;;;;;12.75;5.65;;;;;;;;;;4917650;28;98939;-79
2023/07/13 07:57:20;;;;;;;13.95;6.10;;;;;;;;;;4915570;28;99754;-78
2023/07/13 07:59:50;;;;;;;16.52;6.53;;;;;;;;;;4920142;28;100283;-77
2023/07/13 08:02:19;;;;;;;16.77;6.60;;;;;;;;;;4914298;28;98599;-79
2023/07/13 08:04:48;;;;;;;19.33;7.10;;;;;;;;;;4918236;28;99331;-79
2023/07/13 08:07:18;;;;;;;32.80;8.10;;;;;;;;;;4934092;28;99961;-78
2023/07/13 08:09:46;;;;;;;17.85;7.22;;;;;;;;;;4934106;28;98303;-78
2023/07/13 08:12:14;;;;;;;10.68;5.80;;;;;;;;;;4920770;28;98620;-79
2023/07/13 08:14:43;;;;;;;13.93;6.15;;;;;;;;;;4915404;28;98831;-77
2023/07/13 08:17:21;;;;;;;12.15;5.32;;;;;;;;;;4917979;28;98564;-78
2023/07/13 08:19:48;;;;;;;12.95;5.88;;;;;;;;;;4915043;28;98979;-78
2023/07/13 08:22:15;;;;;;;11.18;4.53;;;;;;;;;;4915252;28;98386;-77
2023/07/13 08:24:45;;;;;;;13.07;4.18;;;;;;;;;;4915017;28;98378;-77
2023/07/13 08:27:12;;;;;;;12.82;4.07;;;;;;;;;;4915898;28;98875;-75
2023/07/13 08:29:39;;;;;;;8.10;3.40;;;;;;;;;;4920992;28;98583;-78
2023/07/13 08:32:09;;;;;;;14.05;3.88;;;;;;;;;;4932332;28;98407;-77
2023/07/13 08:34:36;;;;;;;8.85;3.55;;;;;;;;;;4932173;28;98937;-77
2023/07/13 08:37:02;;;;;;;9.02;3.42;;;;;;;;;;4941478;28;98659;-76
2023/07/13 08:39:33;;;;;;;8.15;3.63;;;;;;;;;;4935921;28;99233;-77
2023/07/13 08:42:03;;;;;;;11.20;3.00;;;;;;;;;;4936095;28;98358;-76
2023/07/13 08:44:45;;;;;;;10.90;3.35;;;;;;;;;;4918195;28;98575;-77
2023/07/13 08:47:13;;;;;;;8.88;3.15;;;;;;;;;;4913896;28;100032;-76
2023/07/13 08:49:40;;;;;;;13.57;3.05;;;;;;;;;;4917771;28;98449;-78
2023/07/13 08:52:28;;;;;;;7.72;2.65;;;;;;;;;;4931067;28;99632;-76
2023/07/13 08:54:56;;;;;;;12.65;3.03;;;;;;;;;;4933887;28;100150;-76
2023/07/13 08:57:28;;;;;;;3.42;1.80;;;;;;;;;;4934037;28;98263;-77
2023/07/13 08:59:56;;;;;;;1.50;1.40;;;;;;;;;;4931672;28;99063;-79
2023/07/13 09:02:28;;;;;;;5.07;1.48;;;;;;;;;;4915236;28;98337;-78
2023/07/13 09:04:59;;;;;;;4.43;1.80;;;;;;;;;;4914540;28;98603;-79
2023/07/13 09:07:40;;;;;;;6.43;2.28;;;;;;;;;;4920483;28;100471;-78
2023/07/13 09:10:25;;;;;;;2.33;1.70;;;;;;;;;;4933758;28;98272;-78
2023/07/13 09:13:12;;;;;;;3.75;1.58;;;;;;;;;;4932498;28;99447;-79
2023/07/13 09:15:46;;;;;;;1.92;1.60;;;;;;;;;;4914748;28;100275;-77
2023/07/13 09:18:13;;;;;;;3.22;2.00;;;;;;;;;;4919867;28;98263;-76
2023/07/13 09:20:46;;;;;;;2.28;1.92;;;;;;;;;;4913355;28;99274;-78
2023/07/13 09:23:15;;;;;;;1.50;1.38;;;;;;;;;;4924259;28;98968;-76
2023/07/13 09:25:43;;;;;;;2.95;1.90;;;;;;;;;;4925372;28;99477;-76
2023/07/13 09:28:13;;;;;;;;;;;;;;;;;;4921709;28;99587;-76
2023/07/13 09:30:49;;;;;;;7.25;3.53;;;;;;;;;;4923778;28;99172;-76
2023/07/13 09:33:16;;;;;;;6.18;2.30;;;;;;;;;;4913578;28;98493;-77
2023/07/13 09:35:42;;;;;;;71.95;41.20;;;;;;;;;;4929657;28;98826;-79
2023/07/13 09:38:13;;;;;;;4.63;2.45;;;;;;;;;;4930659;28;98236;-79
2023/07/13 09:40:56;;;;;;;4.78;2.00;;;;;;;;;;4929786;28;100151;-77
2023/07/13 09:43:23;;;;;;;3.65;1.92;;;;;;;;;;4919679;28;100519;-79
2023/07/13 09:45:50;;;;;;;5.10;2.10;;;;;;;;;;4927460;28;98219;-78
2023/07/13 09:48:17;;;;;;;5.85;2.17;;;;;;;;;;4913784;28;98884;-77
2023/07/13 09:50:44;;;;;;;2.97;1.90;;;;;;;;;;4921939;28;99765;-78
2023/07/13 09:53:11;;;;;;;4.28;2.00;;;;;;;;;;4915066;28;99614;-77
2023/07/13 09:55:39;;;;;;;5.60;2.28;;;;;;;;;;4923884;28;99923;-77
2023/07/13 09:58:11;;;;;;;12.63;5.80;;;;;;;;;;4932041;28;98864;-77
2023/07/13 10:00:40;;;;;;;7.25;2.97;;;;;;;;;;4931567;28;99653;-78
2023/07/13 10:03:15;;;;;;;7.43;2.42;;;;;;;;;;4931609;28;99051;-78
2023/07/13 10:05:43;;;;;;;3.47;1.98;;;;;;;;;;4932070;28;101471;-78
2023/07/13 10:08:24;;;;;;;2.80;2.20;;;;;;;;;;4935212;28;99386;-79
2023/07/13 10:10:58;;;;;;;9.18;2.00;;;;;;;;;;4930876;28;98286;-79
2023/07/13 10:13:27;;;;;;;4.47;2.10;;;;;;;;;;4916593;28;99871;-79
2023/07/13 10:15:56;;;;;;;5.30;2.38;;;;;;;;;;4912387;28;99488;-78
2023/07/13 10:18:24;;;;;;;5.72;3.33;;;;;;;;;;4925992;28;98269;-78
2023/07/13 10:21:00;;;;;;;2.60;1.92;;;;;;;;;;4926635;28;99265;-79
2023/07/13 10:23:50;;;;;;;4.22;1.92;;;;;;;;;;4927843;28;98962;-78
2023/07/13 10:26:19;;;;;;;3.50;1.88;;;;;;;;;;4915661;28;98299;-77
2023/07/13 10:28:49;;;;;;;7.10;2.20;;;;;;;;;;4930395;28;98726;-78
2023/07/13 10:31:16;;;;;;;3.50;2.30;;;;;;;;;;4933054;28;98242;-78
2023/07/13 10:33:43;;;;;;;17.08;2.28;;;;;;;;;;4921826;28;98471;-79
2023/07/13 10:36:10;;;;;;;4.85;1.83;;;;;;;;;;4927751;28;99830;-77
2023/07/13 10:38:38;;;;;;;4.63;2.35;;;;;;;;;;4931502;28;98295;-78
2023/07/13 10:41:11;;;;;;;4.60;2.22;;;;;;;;;;4931868;28;99287;-77
2023/07/13 10:43:41;;;;;;;4.40;2.00;;;;;;;;;;4927632;28;98852;-79
2023/07/13 10:46:11;;;;;;;3.40;1.80;;;;;;;;;;4930695;28;98332;-81
2023/07/13 10:48:38;;;;;;;5.80;2.20;;;;;;;;;;4930398;28;99482;-82
2023/07/13 10:51:07;;;;;;;5.57;2.40;;;;;;;;;;4933372;28;100281;-83
2023/07/13 10:53:36;;;;;;;5.97;2.25;;;;;;;;;;4931010;28;98059;-83
2023/07/13 10:56:08;;;;;;;3.17;2.17;;;;;;;;;;4930088;28;99291;-81
2023/07/13 10:58:38;;;;;;;4.35;2.20;;;;;;;;;;4919399;28;98331;-81
2023/07/13 11:01:08;;;;;;;5.85;1.88;;;;;;;;;;4927427;28;98421;-80
2023/07/13 11:03:46;;;;;;;3.47;1.98;;;;;;;;;;4928160;28;99119;-81
2023/07/13 11:06:13;;;;;;;3.03;2.00;;;;;;;;;;4913918;28;98348;-78
2023/07/13 11:08:41;;;;;;;5.38;2.00;;;;;;;;;;4913134;28;98060;-81
2023/07/13 11:11:28;;;;;;;4.00;2.10;;;;;;;;;;4913322;28;99339;-78
2023/07/13 11:13:54;;;;;;;5.53;2.35;;;;;;;;;;4915691;28;98271;-77
2023/07/13 11:16:26;;;;;;;2.78;2.20;;;;;;;;;;4930113;28;100014;-76
2023/07/13 11:19:08;;;;;;;6.32;1.85;;;;;;;;;;4929429;28;99942;-76
2023/07/13 11:21:55;;;;;;;3.20;2.20;;;;;;;;;;4926545;28;98486;-80
2023/07/13 11:24:21;;;;;;;6.60;1.90;;;;;;;;;;4913340;28;99020;-76
2023/07/13 11:26:48;;;;;;;8.77;2.50;;;;;;;;;;4919738;28;99016;-77
2023/07/13 11:29:15;;;;;;;4.45;2.38;;;;;;;;;;4921956;28;98477;-78
2023/07/13 11:31:43;;;;;;;4.32;2.40;;;;;;;;;;4928818;28;100273;-79
2023/07/13 11:34:13;;;;;;;4.32;2.17;;;;;;;;;;4928832;28;98426;-77
2023/07/13 11:36:43;;;;;;;7.20;2.60;;;;;;;;;;4921982;28;99248;-77
2023/07/13 11:39:21;;;;;;;5.85;2.40;;;;;;;;;;4924666;28;98341;-78
2023/07/13 11:41:57;;;;;;;5.63;2.42;;;;;;;;;;4930415;28;99387;-78
2023/07/13 11:44:24;;;;;;;4.13;2.33;;;;;;;;;;4922753;28;98789;-77
2023/07/13 11:46:52;;;;;;;5.45;3.17;;;;;;;;;;4927252;28;98192;-77
2023/07/13 11:49:22;;;;;;;4.07;2.38;;;;;;;;;;4930746;28;99387;-78
2023/07/13 11:51:53;;;;;;;6.63;2.60;;;;;;;;;;4927350;28;99947;-75
2023/07/13 11:54:30;;;;;;;9.07;2.40;;;;;;;;;;4924082;28;100856;-77
2023/07/13 11:57:15;;;;;;;8.07;2.22;;;;;;;;;;4927049;28;99300;-77
2023/07/13 11:59:42;;;;;;;4.63;1.92;;;;;;;;;;4921390;28;98921;-76
2023/07/13 12:02:16;;;;;;;2.67;2.10;;;;;;;;;;4912157;28;98388;-76
2023/07/13 12:04:42;;;;;;;3.70;2.15;;;;;;;;;;4924281;28;99530;-76
2023/07/13 12:07:16;;;;;;;5.57;2.38;;;;;;;;;;4920642;28;98329;-76
2023/07/13 12:09:43;;;;;;;5.63;2.03;;;;;;;;;;4924407;28;99362;-77
2023/07/13 12:12:14;;;;;;;2.65;2.13;;;;;;;;;;4935825;28;99856;-77
2023/07/13 12:14:40;;;;;;;5.55;2.17;;;;;;;;;;4926255;28;98197;-79
2023/07/13 12:17:16;;;;;;;4.88;2.25;;;;;;;;;;4916839;28;99643;-76
2023/07/13 12:19:42;;;;;;;2.92;2.03;;;;;;;;;;4918368;28;99165;-76
2023/07/13 12:22:11;;;;;;;4.63;1.85;;;;;;;;;;4919351;28;98223;-75
2023/07/13 12:24:40;;;;;;;3.65;2.28;;;;;;;;;;4921125;28;100525;-78
2023/07/13 12:27:17;;;;;;;3.17;1.60;;;;;;;;;;4924583;28;98246;-77
2023/07/13 12:29:53;;;;;;;7.10;2.60;;;;;;;;;;4955772;28;98493;-78
2023/07/13 12:32:20;;;;;;;5.22;2.50;;;;;;;;;;4957174;28;97940;-79
2023/07/13 12:34:51;;;;;;;7.22;2.17;;;;;;;;;;4953530;28;98093;-79
2023/07/13 12:37:17;;;;;;;6.57;2.67;;;;;;;;;;4955731;28;97923;-79
2023/07/13 12:39:48;;;;;;;8.52;2.35;;;;;;;;;;4953347;28;99993;-79
2023/07/13 12:42:21;;;;;;;5.07;2.65;;;;;;;;;;4945832;28;97914;-78
2023/07/13 12:44:48;;;;;;;8.32;3.13;;;;;;;;;;4928400;28;100072;-79
2023/07/13 12:47:15;;;;;;;4.82;1.98;;;;;;;;;;4941734;28;98206;-79
2023/07/13 12:49:47;;;;;;;3.53;2.25;;;;;;;;;;4936296;28;98731;-79
2023/07/13 12:52:21;;;;;;;6.13;2.03;;;;;;;;;;4917598;28;98161;-79
2023/07/13 12:54:56;;;;;;;5.20;1.90;;;;;;;;;;4915641;28;98278;-78
2023/07/13 12:57:32;;;;;;;2.35;1.70;;;;;;;;;;4915910;28;98309;-79
2023/07/13 12:59:58;;;;;;;2.75;1.50;;;;;;;;;;4923121;28;98771;-78
2023/07/13 13:02:32;;;;;;;2.47;1.73;;;;;;;;;;4930371;28;97991;-78
2023/07/13 13:04:59;;;;;;;5.32;1.98;;;;;;;;;;4941808;28;98487;-78
2023/07/13 13:07:26;;;;;;;1.98;1.40;;;;;;;;;;4931797;28;99874;-77
2023/07/13 13:09:55;;;;;;;7.50;2.13;;;;;;;;;;4932672;28;99306;-77
2023/07/13 13:12:22;;;;;;;3.60;2.05;;;;;;;;;;4933192;28;100218;-77
2023/07/13 13:14:52;;;;;;;3.20;2.03;;;;;;;;;;4933958;28;98898;-77
2023/07/13 13:17:23;;;;;;;6.35;1.90;;;;;;;;;;4934404;28;98512;-77
2023/07/13 13:19:52;;;;;;;3.23;1.37;;;;;;;;;;4932438;28;100087;-77
2023/07/13 13:22:19;;;;;;;3.85;1.65;;;;;;;;;;4934027;28;98233;-77
2023/07/13 13:24:47;;;;;;;5.47;2.13;;;;;;;;;;4933530;28;99403;-79
2023/07/13 13:27:20;;;;;;;11.88;2.00;;;;;;;;;;4934775;28;100618;-79
2023/07/13 13:29:48;;;;;;;2.67;2.00;;;;;;;;;;4918456;28;98572;-79
2023/07/13 13:32:15;;;;;;;2.20;1.70;;;;;;;;;;4913216;28;100126;-79
2023/07/13 13:34:42;;;;;;;2.67;2.30;;;;;;;;;;4914104;28;98326;-78
2023/07/13 13:37:16;;;;;;;1.95;1.75;;;;;;;;;;4914885;28;98483;-79
2023/07/13 13:39:43;;;;;;;3.05;1.73;;;;;;;;;;4926305;28;100050;-78
2023/07/13 13:42:24;;;;;;;4.78;1.85;;;;;;;;;;4934099;28;98357;-78
2023/07/13 13:44:51;;;;;;;6.97;2.08;;;;;;;;;;4933209;28;99324;-78
2023/07/13 13:47:27;;;;;;;3.67;2.10;;;;;;;;;;4932555;28;100146;-79
2023/07/13 13:49:54;;;;;;;12.68;2.45;;;;;;;;;;4936486;28;98180;-78
2023/07/13 13:52:20;;;;;;;3.90;1.90;;;;;;;;;;4921816;28;100985;-77
2023/07/13 13:54:47;;;;;;;3.30;2.30;;;;;;;;;;4913114;28;99204;-77
2023/07/13 13:57:14;;;;;;;3.35;1.88;;;;;;;;;;4914217;28;99325;-77
2023/07/13 13:59:40;;;;;;;6.15;2.30;;;;;;;;;;4913387;28;99891;-79
2023/07/13 14:02:22;;;;;;;6.82;1.83;;;;;;;;;;4913920;28;98238;-77
2023/07/13 14:04:52;;;;;;;5.53;2.47;;;;;;;;;;4913010;28;98451;-78
2023/07/13 14:07:18;;;;;;;4.80;2.20;;;;;;;;;;4911773;28;101057;-79
2023/07/13 14:09:45;;;;;;;10.73;2.25;;;;;;;;;;4924173;28;98184;-79
2023/07/13 14:12:14;;;;;;;7.13;2.35;;;;;;;;;;4936178;28;98632;-79
2023/07/13 14:14:41;;;;;;;5.95;2.30;;;;;;;;;;4931831;28;98203;-78
2023/07/13 14:17:21;;;;;;;5.78;2.03;;;;;;;;;;4933488;28;98559;-78
2023/07/13 14:19:51;;;;;;;7.75;2.35;;;;;;;;;;4932804;28;98952;-79
2023/07/13 14:22:21;;;;;;;3.38;2.10;;;;;;;;;;4932034;28;98038;-78
2023/07/13 14:24:48;;;;;;;2.47;1.70;;;;;;;;;;4933312;28;98428;-79
2023/07/13 14:27:15;;;;;;;5.63;1.60;;;;;;;;;;4932597;28;99791;-78
2023/07/13 14:29:42;;;;;;;3.47;1.70;;;;;;;;;;4931570;28;98526;-78
2023/07/13 14:32:10;;;;;;;10.98;3.08;;;;;;;;;;4932170;28;98568;-78
2023/07/13 14:34:36;;;;;;;3.40;1.95;;;;;;;;;;4935308;28;100074;-77
2023/07/13 14:37:05;;;;;;;4.50;2.08;;;;;;;;;;4932108;28;98466;-78
2023/07/13 14:39:33;;;;;;;1.88;1.42;;;;;;;;;;4940461;28;99828;-77
2023/07/13 14:42:01;;;;;;;4.30;1.83;;;;;;;;;;4932567;28;98364;-77
2023/07/13 14:44:29;;;;;;;2.97;1.80;;;;;;;;;;4931653;28;99338;-78